Pagina principale
METAR-TAF:

METAR-TAF

Aeroporti :

Aeroporto di Treviso-Istrana

Treviso, Italia

latitudine: 45-41N, longitudine: 012-06E, altezza: 45 m

Osservazione

Il bollettino è stato emesso 56 minuti fa, alle 02:55 UTC
Vento 3 kt da nord/nord-est
Temperature 5°C
Umidità 87%
Pressione 1023 hPa
Visibilità: 3000 m
foschia

METAR: LIPS 270255Z 03003KT 3000 BR NSC 05/03 Q1023 RMK SKC VIS MIN 3000 WIND THR2601002KT WIND THR08 03003KT YLO

Ora: 04:51 (03:51 UTC)

Previsione

Il bollettino è stato emesso 1 ora e 51 minuti fa, alle 02:00 UTC
Previsione valida dal 27 alle 03 UTC al 27 alle 12 UTC
Vento 3 kt da direzioni variabili
Visibilità 10 km o più
nessuna nube inferiore a 1500 m e nessun cumulonembo
Temporaneamente
dal 27 alle 03 UTC al 27 alle 06 UTC
Visibilità: 1500 m
foschia

TAF: LIPS 270200Z 2703/2712 VRB03KT CAVOK TEMPO 2703/2706 1500 BR NSC

Osservazioni e previsioni meteorologiche di più di 4000 aeroporti (messaggi METAR e TAF).

Le stazioni disponibili sono rappresentate dai dischi gialli e rossi sulla carta.

Puntare il mouse per vedere il nome della stazione.

Clicca sopra per visualizzare le osservazioni e previsioni meteorologiche.

Per cambiare la mappa : fare clic sui pulsanti verdi con una croce nera per ingrandire, il pulsante verde con un trattino per diminuire, o sulla freccia verde per le mappe adiacenti.


METAR-TAF: